ABS weather

Abu Simbel Airport
Abu Simbel, Aswan Governorate, Egypt

Public forecast

Using degrees Celsius for public forecast. Weather courtesy of forecast.io.

Current aviation weather report (METAR) for Abu Simbel Airport

Retrieved 2020/03/29 17:00 UTC (52 minutes ago):

HEBL 291700Z 00000KT CAVOK 24/M00 Q1013 NOSIG

Aviation forecast (TAF) for Abu Simbel Airport

Retrieved 2020/03/29 12:48 UTC (5 hours ago):

TAF HEBL 291100Z 2912/3018 02014KT CAVOK